Time;durP1;ratioP1;P1;durP2;ratioP2;P2;SDS_P1;SDS_P2;PMS_P1;PMS_P2;Temp;Humidity;BMP_temperature;BMP_pressure;BME280_temperature;BME280_humidity;BME280_pressure;Samples;Min_cycle;Max_cycle;Signal;HPM_P1;HPM_P2
2021/06/17 02:46:36;;;;;;;6.93;4.85;;;18.20;84.20;;;;;;5081798;24;20169;-77
2021/06/17 02:49:06;;;;;;;12.73;5.47;;;18.20;84.70;;;;;;4725754;30;20039;-77
2021/06/17 02:51:32;;;;;;;12.48;5.53;;;18.20;84.60;;;;;;4725493;30;20037;-77
2021/06/17 02:53:58;;;;;;;9.35;5.03;;;18.20;84.40;;;;;;4726756;30;20406;-77
2021/06/17 02:56:40;;;;;;;10.27;5.30;;;18.20;84.50;;;;;;4725663;30;20130;-77
2021/06/17 02:59:26;;;;;;;11.52;5.90;;;18.20;84.80;;;;;;4725872;30;20225;-77
2021/06/17 03:01:59;;;;;;;9.40;5.35;;;18.10;85.00;;;;;;4708239;30;20042;-77
2021/06/17 03:04:34;;;;;;;11.77;5.45;;;18.10;85.30;;;;;;4710398;30;20034;-77
2021/06/17 03:07:05;;;;;;;6.63;5.10;;;18.10;85.10;;;;;;4726864;30;20033;-77
2021/06/17 03:09:46;;;;;;;10.63;5.28;;;18.10;85.00;;;;;;4711445;30;20037;-77
2021/06/17 03:12:15;;;;;;;6.63;5.22;;;18.10;85.10;;;;;;4725499;30;20033;-77
2021/06/17 03:14:42;;;;;;;12.57;5.07;;;18.10;85.10;;;;;;4726625;30;20097;-77
2021/06/17 03:17:10;;;;;;;8.90;5.35;;;18.10;85.30;;;;;;4726157;30;20052;-77
2021/06/17 03:19:37;;;;;;;6.38;4.95;;;18.10;85.40;;;;;;4714779;30;20044;-77
2021/06/17 03:22:05;;;;;;;;;;;18.10;85.30;;;;;;4729478;30;20036;-77
2021/06/17 03:24:37;;;;;;;8.73;5.55;;;18.10;85.20;;;;;;4733347;30;19950;-77
2021/06/17 03:27:04;;;;;;;10.80;5.68;;;18.20;85.30;;;;;;4728198;30;20063;-77
2021/06/17 03:29:35;;;;;;;8.82;5.47;;;18.20;85.30;;;;;;4729165;30;20041;-77
2021/06/17 03:32:03;;;;;;;6.95;4.97;;;18.20;85.40;;;;;;4729963;30;20378;-77
2021/06/17 03:34:30;;;;;;;16.65;6.13;;;18.20;85.50;;;;;;4730194;30;20295;-77
2021/06/17 03:36:58;;;;;;;9.88;5.60;;;18.30;85.40;;;;;;4730131;30;20307;-76
2021/06/17 03:39:26;;;;;;;10.13;5.43;;;18.20;85.60;;;;;;4729208;30;20040;-77
2021/06/17 03:41:52;;;;;;;;;;;18.30;85.60;;;;;;4729422;30;20320;-77
2021/06/17 03:44:20;;;;;;;11.05;5.00;;;18.30;85.70;;;;;;4714345;30;19915;-77
2021/06/17 03:46:47;;;;;;;8.57;4.82;;;18.30;85.70;;;;;;4739844;30;20048;-77
2021/06/17 03:49:13;;;;;;;10.70;5.25;;;18.40;85.60;;;;;;4737721;30;20317;-77
2021/06/17 03:51:41;;;;;;;11.55;5.70;;;18.40;85.40;;;;;;4729007;30;20317;-77
2021/06/17 03:54:08;;;;;;;;;;;18.40;85.40;;;;;;4729384;30;20037;-77
2021/06/17 03:56:34;;;;;;;9.15;5.72;;;18.50;85.30;;;;;;4729174;30;19973;-77
2021/06/17 03:59:00;;;;;;;9.00;4.90;;;18.50;85.20;;;;;;4729960;30;20126;-77
2021/06/17 04:01:28;;;;;;;10.38;5.80;;;18.60;85.00;;;;;;4729817;30;20212;-77
2021/06/17 04:03:54;;;;;;;12.77;6.28;;;18.70;85.00;;;;;;4730088;30;20355;-77
2021/06/17 04:06:24;;;;;;;14.20;6.65;;;18.70;84.50;;;;;;4729863;30;20026;-77
2021/06/17 04:08:52;;;;;;;14.82;5.90;;;18.80;84.40;;;;;;4729020;30;20033;-77
2021/06/17 04:11:22;;;;;;;12.30;6.60;;;18.90;84.60;;;;;;4728834;30;20360;-79
2021/06/17 04:13:50;;;;;;;22.95;6.35;;;19.00;84.00;;;;;;4728624;30;20044;-77
2021/06/17 04:16:21;;;;;;;24.40;6.82;;;19.10;84.00;;;;;;4728545;30;20064;-77
2021/06/17 04:18:48;;;;;;;21.70;5.57;;;19.20;83.40;;;;;;4728752;30;20052;-77
2021/06/17 04:21:16;;;;;;;17.95;6.93;;;19.30;82.70;;;;;;4728815;30;20028;-77
2021/06/17 04:23:47;;;;;;;17.90;5.97;;;19.40;82.40;;;;;;4728756;30;20044;-78
2021/06/17 04:26:18;;;;;;;11.60;6.30;;;19.50;81.90;;;;;;4728507;30;20024;-77
2021/06/17 04:28:43;;;;;;;14.48;6.55;;;19.60;81.40;;;;;;4728957;30;20029;-78
2021/06/17 04:31:11;;;;;;;14.02;5.35;;;19.70;81.00;;;;;;4728248;30;20589;-78
2021/06/17 04:33:38;;;;;;;9.52;5.07;;;19.80;80.80;;;;;;4729546;30;20060;-77
2021/06/17 04:36:04;;;;;;;10.20;5.47;;;20.00;80.10;;;;;;4729759;30;20033;-77
2021/06/17 04:38:30;;;;;;;18.90;5.80;;;20.10;79.40;;;;;;4728235;30;20112;-77
2021/06/17 04:40:56;;;;;;;25.17;6.53;;;20.20;78.90;;;;;;4728385;30;20037;-76
2021/06/17 04:43:23;;;;;;;31.83;6.65;;;20.40;78.70;;;;;;4728225;30;20078;-77
2021/06/17 04:45:51;;;;;;;19.83;6.87;;;20.40;78.70;;;;;;4724718;30;20049;-77
2021/06/17 04:48:17;;;;;;;21.50;5.90;;;20.50;78.90;;;;;;4725704;30;20037;-77
2021/06/17 04:50:45;;;;;;;38.78;5.93;;;20.60;78.30;;;;;;4729159;30;20033;-77
2021/06/17 04:53:14;;;;;;;11.13;5.88;;;20.80;78.00;;;;;;4713443;30;20127;-77
2021/06/17 04:55:51;;;;;;;13.93;5.40;;;20.90;77.80;;;;;;4728196;30;20024;-77
2021/06/17 04:58:19;;;;;;;17.92;5.63;;;21.00;76.80;;;;;;4713478;30;20303;-77
2021/06/17 05:00:45;;;;;;;9.85;4.93;;;21.10;76.80;;;;;;4724645;30;20037;-77
2021/06/17 05:03:11;;;;;;;8.73;4.97;;;21.10;76.80;;;;;;4721652;30;20097;-78
2021/06/17 05:05:37;;;;;;;11.80;6.22;;;21.20;76.70;;;;;;4726404;30;20230;-77
2021/06/17 05:10:50;;;;;;;14.32;5.38;;;21.40;75.90;;;;;;4726815;30;20025;-77
2021/06/17 05:13:24;;;;;;;31.35;6.00;;;21.50;75.90;;;;;;4723831;30;20037;-77
2021/06/17 05:15:52;;;;;;;18.65;4.80;;;22.10;75.50;;;;;;4727490;30;20277;-76
2021/06/17 05:18:19;;;;;;;9.35;4.13;;;23.30;71.60;;;;;;4726943;30;20690;-75
2021/06/17 05:20:45;;;;;;;;;;;24.50;68.20;;;;;;4728474;30;20036;-77
2021/06/17 05:23:18;;;;;;;10.77;4.80;;;25.80;66.90;;;;;;4726600;30;19998;-77
2021/06/17 05:25:44;;;;;;;9.45;3.80;;;27.10;59.70;;;;;;4725625;30;20033;-77
2021/06/17 05:28:17;;;;;;;9.70;3.95;;;28.00;55.50;;;;;;4707128;30;20044;-77
2021/06/17 05:30:44;;;;;;;13.57;4.95;;;28.70;53.20;;;;;;4727000;30;20032;-77
2021/06/17 05:33:10;;;;;;;13.50;4.78;;;29.30;51.50;;;;;;4723537;30;20033;-77
2021/06/17 05:35:36;;;;;;;14.43;4.40;;;30.00;49.70;;;;;;4719391;30;20030;-77
2021/06/17 05:38:02;;;;;;;14.07;4.43;;;30.50;48.70;;;;;;4725769;30;20092;-77
2021/06/17 05:40:29;;;;;;;7.93;3.08;;;30.30;47.40;;;;;;4727557;30;20056;-77
2021/06/17 05:42:55;;;;;;;13.73;3.60;;;30.10;48.30;;;;;;4727098;30;20076;-77
2021/06/17 05:45:20;;;;;;;11.03;3.57;;;30.30;47.50;;;;;;4727146;30;20025;-77
2021/06/17 05:47:46;;;;;;;7.73;3.37;;;30.40;47.20;;;;;;4723107;30;20029;-77
2021/06/17 05:50:12;;;;;;;12.37;3.20;;;30.40;47.80;;;;;;4724102;30;20044;-77
2021/06/17 05:52:38;;;;;;;5.88;3.03;;;30.70;46.70;;;;;;4728330;30;20224;-77
2021/06/17 05:55:05;;;;;;;11.00;3.17;;;30.60;46.30;;;;;;4727290;30;20084;-77
2021/06/17 05:57:31;;;;;;;12.18;3.50;;;30.80;46.00;;;;;;4728462;30;20047;-77
2021/06/17 05:59:57;;;;;;;16.00;3.63;;;31.00;46.70;;;;;;4727596;30;20068;-77
2021/06/17 06:02:24;;;;;;;12.93;3.60;;;31.00;46.50;;;;;;4727991;30;20096;-77
2021/06/17 06:04:53;;;;;;;7.22;3.35;;;30.80;46.30;;;;;;4726367;30;20089;-77
2021/06/17 06:07:19;;;;;;;9.55;3.65;;;30.40;47.20;;;;;;4721124;30;20320;-77
2021/06/17 06:09:46;;;;;;;6.57;3.63;;;30.10;47.10;;;;;;4726865;30;20104;-77
2021/06/17 06:12:14;;;;;;;12.23;3.30;;;29.80;48.10;;;;;;4711983;30;20108;-77
2021/06/17 06:14:40;;;;;;;11.52;4.18;;;29.70;49.40;;;;;;4728039;30;20309;-77
2021/06/17 06:17:06;;;;;;;9.40;3.58;;;29.70;50.10;;;;;;4726875;30;20056;-77
2021/06/17 06:19:34;;;;;;;12.17;3.90;;;30.00;50.20;;;;;;4726721;30;20061;-77
2021/06/17 06:22:00;;;;;;;8.07;3.30;;;30.20;49.50;;;;;;4710453;30;20048;-77
2021/06/17 06:24:26;;;;;;;9.18;3.65;;;30.50;49.50;;;;;;4720034;30;20069;-77
2021/06/17 06:26:57;;;;;;;18.70;3.90;;;30.50;48.60;;;;;;4700371;30;20108;-77
2021/06/17 06:29:22;;;;;;;15.70;3.25;;;30.30;47.50;;;;;;4727507;30;20057;-77
2021/06/17 06:31:48;;;;;;;15.77;2.93;;;30.00;48.90;;;;;;4727771;30;20029;-77
2021/06/17 06:34:14;;;;;;;4.43;3.00;;;30.00;48.80;;;;;;4726406;30;20033;-77
2021/06/17 06:36:40;;;;;;;7.20;3.00;;;29.80;48.90;;;;;;4727827;30;20032;-77
2021/06/17 06:39:05;;;;;;;7.50;3.40;;;29.70;49.10;;;;;;4732350;30;20115;-77
2021/06/17 06:41:31;;;;;;;12.00;3.00;;;29.70;49.40;;;;;;4711585;30;20067;-77
2021/06/17 06:43:57;;;;;;;8.20;3.07;;;29.80;49.30;;;;;;4727643;30;20033;-77
2021/06/17 06:46:23;;;;;;;12.43;3.33;;;29.60;49.20;;;;;;4720753;30;20068;-77
2021/06/17 06:48:48;;;;;;;4.83;3.27;;;29.50;49.10;;;;;;4721297;30;20030;-76
2021/06/17 06:51:14;;;;;;;9.23;3.63;;;29.30;49.30;;;;;;4714744;30;20036;-76
2021/06/17 06:53:40;;;;;;;23.97;4.90;;;29.30;51.00;;;;;;4726487;30;20328;-77
2021/06/17 06:56:06;;;;;;;18.13;3.67;;;29.30;50.60;;;;;;4725602;30;20037;-76
2021/06/17 06:58:32;;;;;;;6.73;3.63;;;29.30;50.90;;;;;;4727023;30;20025;-76
2021/06/17 07:00:57;;;;;;;16.97;3.50;;;29.10;50.90;;;;;;4725363;30;20252;-77
2021/06/17 07:03:23;;;;;;;10.87;3.40;;;29.10;50.40;;;;;;4726462;30;20063;-77
2021/06/17 07:05:49;;;;;;;10.17;3.87;;;28.90;50.40;;;;;;4711180;30;20324;-76
2021/06/17 07:08:15;;;;;;;10.65;3.40;;;28.90;51.70;;;;;;4726776;30;20032;-76
2021/06/17 07:10:43;;;;;;;19.10;3.47;;;28.90;50.50;;;;;;4725820;30;20044;-77
2021/06/17 07:13:10;;;;;;;8.77;3.65;;;28.90;51.20;;;;;;4725720;30;20064;-77
2021/06/17 07:15:35;;;;;;;16.55;3.35;;;28.90;50.00;;;;;;4709057;30;20034;-77
2021/06/17 07:18:01;;;;;;;15.83;4.00;;;28.80;50.80;;;;;;4725587;30;20270;-76
2021/06/17 07:20:27;;;;;;;11.60;3.73;;;28.70;50.50;;;;;;4725814;30;20043;-76
2021/06/17 07:22:55;;;;;;;9.47;3.53;;;28.80;51.20;;;;;;4720329;30;20044;-76
2021/06/17 07:25:26;;;;;;;13.63;3.25;;;28.90;51.00;;;;;;4720415;30;20037;-77
2021/06/17 07:27:52;;;;;;;14.68;3.83;;;29.00;49.70;;;;;;4725245;30;20076;-76
2021/06/17 07:30:20;;;;;;;8.77;3.90;;;28.90;50.00;;;;;;4725592;30;20036;-77
2021/06/17 07:32:46;;;;;;;6.22;3.35;;;29.10;50.10;;;;;;4726054;30;20049;-77
2021/06/17 07:35:13;;;;;;;7.40;3.43;;;29.10;49.20;;;;;;4725303;30;20103;-76
2021/06/17 07:37:39;;;;;;;12.65;3.50;;;29.10;50.10;;;;;;4726453;30;20100;-78
2021/06/17 07:40:07;;;;;;;5.63;3.20;;;29.10;48.90;;;;;;4721468;30;20209;-77
2021/06/17 07:42:33;;;;;;;10.38;3.05;;;29.00;49.80;;;;;;4725263;30;20113;-77
2021/06/17 07:44:59;;;;;;;6.63;3.13;;;29.10;50.10;;;;;;4725384;30;20033;-76
2021/06/17 07:47:25;;;;;;;16.13;2.87;;;29.20;50.30;;;;;;4720433;30;20052;-76
2021/06/17 07:49:50;;;;;;;5.63;2.73;;;29.30;49.40;;;;;;4726209;30;20224;-76
2021/06/17 07:52:17;;;;;;;4.37;2.67;;;29.40;48.80;;;;;;4722551;30;20235;-77
2021/06/17 07:54:43;;;;;;;9.70;3.20;;;29.50;48.60;;;;;;4725464;30;20033;-76
2021/06/17 07:57:08;;;;;;;9.77;3.00;;;29.50;48.10;;;;;;4723686;30;20118;-76
2021/06/17 07:59:34;;;;;;;12.37;3.50;;;29.50;47.90;;;;;;4725980;30;20033;-77
2021/06/17 08:02:00;;;;;;;7.47;2.70;;;29.60;48.00;;;;;;4724864;30;20083;-76
2021/06/17 08:04:27;;;;;;;11.37;2.73;;;29.60;46.50;;;;;;4727947;30;20025;-76
2021/06/17 08:06:53;;;;;;;;;;;29.50;47.50;;;;;;4713146;30;20186;-77
2021/06/17 08:09:19;;;;;;;11.00;2.58;;;29.60;46.70;;;;;;4725355;30;19985;-77
2021/06/17 08:11:46;;;;;;;11.37;2.93;;;29.60;47.50;;;;;;4729200;30;20028;-77
2021/06/17 08:14:16;;;;;;;9.65;2.67;;;29.70;47.10;;;;;;4725268;30;20321;-76
2021/06/17 08:16:43;;;;;;;11.88;3.50;;;29.90;47.50;;;;;;4727307;30;20320;-76
2021/06/17 08:19:08;;;;;;;9.85;2.95;;;30.10;47.40;;;;;;4727680;30;20037;-76
2021/06/17 08:21:34;;;;;;;11.60;3.13;;;30.20;46.50;;;;;;4727813;30;20079;-76
2021/06/17 08:24:00;;;;;;;5.83;2.37;;;30.30;46.30;;;;;;4713644;30;20037;-77
2021/06/17 08:26:26;;;;;;;12.70;3.20;;;30.40;47.40;;;;;;4727925;30;20025;-77
2021/06/17 08:28:52;;;;;;;11.73;2.80;;;30.30;46.80;;;;;;4726994;30;20025;-76
2021/06/17 08:31:18;;;;;;;8.43;2.83;;;30.30;44.90;;;;;;4723362;30;20032;-76
2021/06/17 08:33:43;;;;;;;10.40;2.53;;;30.30;45.70;;;;;;4728580;30;20091;-76
2021/06/17 08:36:10;;;;;;;11.30;3.60;;;30.30;45.20;;;;;;4722578;30;20041;-76
2021/06/17 08:38:36;;;;;;;;;;;30.30;46.50;;;;;;4725036;30;20028;-76
2021/06/17 08:41:04;;;;;;;19.08;5.50;;;30.40;46.40;;;;;;4725618;30;19911;-76
2021/06/17 08:43:30;;;;;;;15.82;2.92;;;30.40;46.10;;;;;;4726772;30;20035;-76
2021/06/17 08:45:56;;;;;;;14.43;4.13;;;30.40;46.00;;;;;;4728057;30;20356;-76
2021/06/17 08:48:22;;;;;;;12.07;3.13;;;30.50;46.80;;;;;;4725277;30;20071;-75
2021/06/17 08:50:48;;;;;;;9.63;2.92;;;30.50;45.70;;;;;;4722374;30;20055;-74
2021/06/17 08:53:14;;;;;;;7.77;2.47;;;30.60;46.30;;;;;;4728523;30;20060;-74
2021/06/17 08:55:40;;;;;;;9.40;2.75;;;30.60;43.50;;;;;;4728403;30;20338;-74
2021/06/17 08:58:06;;;;;;;14.20;2.53;;;30.60;44.80;;;;;;4728416;30;20087;-75
2021/06/17 09:00:38;;;;;;;7.07;2.77;;;30.70;44.80;;;;;;4725912;30;20295;-75
2021/06/17 09:03:10;;;;;;;21.65;2.58;;;30.90;45.90;;;;;;4719307;30;20037;-75
2021/06/17 09:05:41;;;;;;;10.38;2.72;;;30.90;43.00;;;;;;4718856;30;20079;-75
2021/06/17 09:08:09;;;;;;;9.13;2.20;;;31.00;43.90;;;;;;4728138;30;20093;-75
2021/06/17 09:10:41;;;;;;;11.82;2.35;;;31.10;43.90;;;;;;4726933;30;20037;-75
2021/06/17 09:13:07;;;;;;;12.13;2.50;;;31.20;44.00;;;;;;4726779;30;20037;-75
2021/06/17 09:15:35;;;;;;;9.07;1.75;;;31.30;43.40;;;;;;4728035;30;20031;-75
2021/06/17 09:18:26;;;;;;;11.32;2.42;;;31.50;42.30;;;;;;4726762;30;20033;-75
2021/06/17 09:20:57;;;;;;;10.35;2.17;;;31.60;41.20;;;;;;4714442;30;20258;-74
2021/06/17 09:23:37;;;;;;;5.68;1.92;;;31.70;41.50;;;;;;4724356;30;20041;-75
2021/06/17 09:26:04;;;;;;;8.68;2.20;;;31.70;40.70;;;;;;4723571;30;20039;-75
2021/06/17 09:29:03;;;;;;;8.65;2.47;;;31.70;41.00;;;;;;4726922;30;20036;-75
2021/06/17 09:31:40;;;;;;;8.70;2.28;;;31.60;41.30;;;;;;4706886;30;20041;-75
2021/06/17 09:34:07;;;;;;;9.30;2.38;;;31.50;41.00;;;;;;4691829;30;20249;-75
2021/06/17 09:36:35;;;;;;;13.10;2.35;;;31.50;41.40;;;;;;4678823;30;20267;-75
2021/06/17 09:39:08;;;;;;;8.73;2.38;;;31.60;41.70;;;;;;4698388;30;20033;-75
2021/06/17 09:42:10;;;;;;;3.70;2.20;;;31.60;41.00;;;;;;4690943;30;20042;-75
2021/06/17 09:44:40;;;;;;;11.75;1.85;;;31.70;42.60;;;;;;4667476;30;20038;-75
2021/06/17 09:47:21;;;;;;;9.63;2.35;;;31.60;42.20;;;;;;4651948;30;20351;-76
2021/06/17 09:49:48;;;;;;;9.55;2.00;;;31.60;41.20;;;;;;4669924;30;20047;-74
2021/06/17 09:52:15;;;;;;;10.10;2.20;;;31.80;40.90;;;;;;4673650;30;20042;-75
2021/06/17 09:54:45;;;;;;;8.02;1.65;;;31.70;40.30;;;;;;4668541;30;20059;-74
2021/06/17 09:57:15;;;;;;;5.35;1.92;;;31.80;40.80;;;;;;4664784;30;20043;-75
2021/06/17 09:59:44;;;;;;;9.15;2.38;;;32.00;39.70;;;;;;4659326;30;20210;-75
2021/06/17 10:02:16;;;;;;;7.15;1.75;;;32.00;38.00;;;;;;4658598;30;20053;-76
2021/06/17 10:04:42;;;;;;;11.88;1.73;;;32.00;38.80;;;;;;4659618;30;20035;-75
2021/06/17 10:07:09;;;;;;;4.95;1.85;;;32.20;39.20;;;;;;4665773;30;20054;-75
2021/06/17 10:09:35;;;;;;;9.15;2.13;;;32.30;38.70;;;;;;4675702;30;20026;-75
2021/06/17 10:12:02;;;;;;;8.43;1.77;;;32.30;37.70;;;;;;4690556;30;20034;-75
2021/06/17 10:14:29;;;;;;;5.57;1.65;;;32.30;38.60;;;;;;4690583;30;20057;-75
2021/06/17 10:16:55;;;;;;;7.70;2.20;;;32.40;38.50;;;;;;4690402;30;20117;-76
2021/06/17 10:19:21;;;;;;;8.10;2.15;;;32.50;37.70;;;;;;4689312;30;20038;-76
2021/06/17 10:21:48;;;;;;;7.40;1.70;;;32.60;38.20;;;;;;4723257;30;20052;-75
2021/06/17 10:24:15;;;;;;;;;;;32.80;37.30;;;;;;4729609;30;20021;-76
2021/06/17 10:26:47;;;;;;;7.45;1.88;;;32.70;37.30;;;;;;4729637;30;19921;-75
2021/06/17 10:29:28;;;;;;;11.93;1.85;;;32.60;37.80;;;;;;4729896;30;20404;-75
2021/06/17 10:31:57;;;;;;;8.85;2.38;;;32.70;37.20;;;;;;4724092;30;20055;-75
2021/06/17 10:34:27;;;;;;;8.43;2.00;;;32.60;37.00;;;;;;4719690;30;20137;-75
2021/06/17 10:37:14;;;;;;;2.50;1.85;;;32.50;37.30;;;;;;4727053;30;20041;-75
2021/06/17 10:39:44;;;;;;;4.30;1.20;;;32.70;38.70;;;;;;4726638;30;20033;-76
2021/06/17 10:42:32;;;;;;;8.73;2.22;;;32.60;36.80;;;;;;4729086;30;20049;-76
2021/06/17 10:45:06;;;;;;;10.43;2.33;;;32.80;37.50;;;;;;4726818;30;20088;-77
2021/06/17 10:47:45;;;;;;;4.22;1.73;;;32.80;36.30;;;;;;4731584;30;20057;-77
2021/06/17 10:50:19;;;;;;;4.35;2.00;;;32.70;38.20;;;;;;4725726;30;20083;-76
2021/06/17 10:52:46;;;;;;;10.10;2.20;;;32.90;39.00;;;;;;4714214;30;20389;-76
2021/06/17 10:55:17;;;;;;;13.65;2.10;;;32.90;37.10;;;;;;4726656;30;20103;-77
2021/06/17 10:57:52;;;;;;;7.68;2.05;;;32.80;36.80;;;;;;4710897;30;20321;-76
2021/06/17 11:02:54;;;;;;;4.20;1.95;;;32.90;36.50;;;;;;4730159;30;20252;-76
2021/06/17 11:05:29;;;;;;;6.20;2.42;;;32.90;36.80;;;;;;4731174;30;20036;-75
2021/06/17 11:08:22;;;;;;;4.05;2.17;;;32.90;36.00;;;;;;4725585;30;20037;-77
2021/06/17 11:11:07;;;;;;;7.90;2.15;;;32.90;37.60;;;;;;4729765;30;20041;-77
2021/06/17 11:13:42;;;;;;;9.02;1.90;;;33.10;36.70;;;;;;4730913;30;20032;-77
2021/06/17 11:16:14;;;;;;;4.68;2.08;;;33.10;36.50;;;;;;4727261;30;20037;-77
2021/06/17 11:21:24;;;;;;;4.32;1.92;;;33.10;37.80;;;;;;4726696;30;20029;-76
2021/06/17 11:24:01;;;;;;;7.38;2.20;;;33.00;37.50;;;;;;4725148;30;20039;-77
2021/06/17 11:26:44;;;;;;;;;;;33.10;37.20;;;;;;4726845;30;20100;-77
2021/06/17 11:29:21;;;;;;;7.57;1.85;;;33.20;36.70;;;;;;4712807;30;20179;-78
2021/06/17 11:31:49;;;;;;;9.02;2.00;;;33.30;36.40;;;;;;4714175;30;20302;-76
2021/06/17 11:34:38;;;;;;;4.60;1.48;;;33.30;35.40;;;;;;4706548;30;20040;-77
2021/06/17 11:37:12;;;;;;;3.15;1.80;;;33.20;36.70;;;;;;4724819;30;20029;-77
2021/06/17 11:39:38;;;;;;;11.35;1.83;;;33.30;35.40;;;;;;4726214;30;20367;-76
2021/06/17 11:42:06;;;;;;;5.80;1.70;;;33.20;35.60;;;;;;4728712;30;20059;-77
2021/06/17 11:44:32;;;;;;;9.15;2.25;;;33.20;36.50;;;;;;4719184;30;20033;-77
2021/06/17 11:47:08;;;;;;;10.90;1.95;;;33.20;37.90;;;;;;4735582;30;20061;-77
2021/06/17 11:49:39;;;;;;;5.10;1.70;;;33.40;35.90;;;;;;4728163;30;20025;-76
2021/06/17 11:52:27;;;;;;;2.80;2.00;;;33.40;35.90;;;;;;4732198;30;20090;-76
2021/06/17 11:55:03;;;;;;;4.20;1.83;;;33.30;37.40;;;;;;4728685;30;20028;-76
2021/06/17 11:57:30;;;;;;;6.35;1.83;;;33.40;37.20;;;;;;4729317;30;20109;-77
2021/06/17 11:59:55;;;;;;;14.48;2.53;;;33.50;35.10;;;;;;4733260;30;20040;-77
2021/06/17 12:02:25;;;;;;;8.80;2.10;;;33.50;35.70;;;;;;4736186;30;20228;-77
2021/06/17 12:05:00;;;;;;;1.48;0.60;;;33.60;35.50;;;;;;4728105;30;20040;-76
2021/06/17 12:07:27;;;;;;;6.13;2.03;;;33.60;35.10;;;;;;4730688;30;20379;-77
2021/06/17 12:10:08;;;;;;;8.93;1.73;;;33.60;34.40;;;;;;4727849;30;20024;-78
2021/06/17 12:12:34;;;;;;;9.63;1.88;;;33.70;35.90;;;;;;4728024;30;20221;-77
2021/06/17 12:15:00;;;;;;;8.35;2.10;;;33.80;34.90;;;;;;4729010;30;20084;-77
2021/06/17 12:17:32;;;;;;;17.60;2.20;;;33.80;36.10;;;;;;4729664;30;20053;-77
2021/06/17 12:20:01;;;;;;;7.28;2.13;;;33.60;35.70;;;;;;4728092;30;20244;-77
2021/06/17 12:22:27;;;;;;;2.42;1.67;;;33.60;35.90;;;;;;4732697;30;20043;-77
2021/06/17 12:24:54;;;;;;;8.95;1.95;;;33.70;34.80;;;;;;4728877;30;20061;-77
2021/06/17 12:27:20;;;;;;;9.52;2.08;;;33.60;34.70;;;;;;4729354;30;20033;-77
2021/06/17 12:29:47;;;;;;;6.10;1.75;;;33.70;35.10;;;;;;4729183;30;20101;-77
2021/06/17 12:32:13;;;;;;;7.68;1.95;;;33.70;36.70;;;;;;4728186;30;20116;-78
2021/06/17 12:34:46;;;;;;;7.20;2.00;;;33.60;36.80;;;;;;4734138;30;20051;-77
2021/06/17 12:37:12;;;;;;;5.30;2.20;;;33.60;36.60;;;;;;4730874;30;20100;-77
2021/06/17 12:39:40;;;;;;;4.22;2.50;;;33.60;37.60;;;;;;4728828;30;20029;-77
2021/06/17 12:42:12;;;;;;;6.85;1.60;;;33.80;37.30;;;;;;4725816;30;20095;-77
2021/06/17 12:44:40;;;;;;;7.53;1.95;;;33.90;36.50;;;;;;4720087;30;20024;-77
2021/06/17 12:47:21;;;;;;;4.00;1.90;;;34.10;36.00;;;;;;4726860;30;20435;-78
2021/06/17 12:52:34;;;;;;;7.57;1.85;;;34.10;35.90;;;;;;4719892;30;20040;-77
2021/06/17 12:55:01;;;;;;;5.88;1.73;;;34.00;35.60;;;;;;4727551;30;20041;-77
2021/06/17 12:57:28;;;;;;;;;;;34.10;36.20;;;;;;4713355;30;20104;-77
2021/06/17 12:59:59;;;;;;;6.10;2.00;;;34.10;35.50;;;;;;4727563;30;19957;-78
2021/06/17 13:02:27;;;;;;;5.60;2.22;;;34.20;35.00;;;;;;4727437;30;20096;-77
2021/06/17 13:05:14;;;;;;;8.52;2.58;;;34.10;35.20;;;;;;4728274;30;20309;-77
2021/06/17 13:07:58;;;;;;;2.10;1.35;;;34.10;35.40;;;;;;4723969;30;20060;-77
2021/06/17 13:10:25;;;;;;;9.68;2.10;;;34.10;36.00;;;;;;4727112;30;20029;-77
2021/06/17 13:12:53;;;;;;;4.55;2.00;;;34.20;35.50;;;;;;4713249;30;20033;-77
2021/06/17 13:15:28;;;;;;;5.07;2.10;;;34.30;35.30;;;;;;4726956;30;20224;-77
2021/06/17 13:18:11;;;;;;;6.63;1.77;;;34.30;36.20;;;;;;4728430;30;20041;-78
2021/06/17 13:20:43;;;;;;;3.40;1.85;;;34.40;36.10;;;;;;4727147;30;20071;-77
2021/06/17 13:23:23;;;;;;;12.13;1.90;;;34.50;36.30;;;;;;4703216;30;20036;-77
2021/06/17 13:25:59;;;;;;;5.20;1.95;;;34.60;35.70;;;;;;4727320;30;20036;-78
2021/06/17 13:28:31;;;;;;;5.47;1.90;;;34.60;34.60;;;;;;4727123;30;20041;-77
2021/06/17 13:30:58;;;;;;;2.53;1.65;;;34.50;34.10;;;;;;4726912;30;20104;-77
2021/06/17 13:33:24;;;;;;;8.93;2.03;;;34.40;34.60;;;;;;4726813;30;20041;-77
2021/06/17 13:35:50;;;;;;;7.47;1.85;;;34.40;35.10;;;;;;4727933;30;20259;-78
2021/06/17 13:38:19;;;;;;;4.00;1.60;;;34.40;34.60;;;;;;4726886;30;20222;-77
2021/06/17 13:40:46;;;;;;;3.63;1.85;;;34.30;34.80;;;;;;4727605;30;20361;-76
2021/06/17 13:43:13;;;;;;;5.40;2.38;;;34.40;34.60;;;;;;4726065;30;20109;-77
2021/06/17 13:45:39;;;;;;;2.40;1.67;;;34.40;34.10;;;;;;4723746;30;20060;-77
2021/06/17 13:48:05;;;;;;;18.25;2.17;;;34.40;35.40;;;;;;4728281;30;20092;-77
2021/06/17 13:50:31;;;;;;;3.70;2.35;;;34.30;34.10;;;;;;4712201;30;20083;-77
2021/06/17 13:52:57;;;;;;;2.30;1.63;;;34.30;33.80;;;;;;4721862;30;20037;-77
2021/06/17 13:55:24;;;;;;;5.90;1.70;;;34.40;35.20;;;;;;4725502;30;20052;-77
2021/06/17 13:57:56;;;;;;;3.17;2.03;;;34.50;34.40;;;;;;4711508;30;20109;-76
2021/06/17 14:00:23;;;;;;;6.28;2.10;;;34.40;34.10;;;;;;4723004;30;20329;-76
2021/06/17 14:02:49;;;;;;;;;;;34.40;34.80;;;;;;4720621;30;20049;-77
2021/06/17 14:05:16;;;;;;;4.90;2.03;;;34.40;35.10;;;;;;4722271;30;19918;-76
2021/06/17 14:07:44;;;;;;;3.95;1.90;;;34.50;33.20;;;;;;4727075;30;20030;-77
2021/06/17 14:10:13;;;;;;;3.13;1.75;;;34.40;33.00;;;;;;4724816;30;20026;-76
2021/06/17 14:12:40;;;;;;;7.00;2.45;;;34.20;33.40;;;;;;4719517;30;20047;-76
2021/06/17 14:15:12;;;;;;;9.50;2.25;;;34.20;34.20;;;;;;4725948;30;20202;-77
2021/06/17 14:17:38;;;;;;;6.30;1.83;;;34.30;34.00;;;;;;4721157;30;20165;-76
2021/06/17 14:20:06;;;;;;;5.43;1.63;;;34.40;33.70;;;;;;4717733;30;20242;-76
2021/06/17 14:22:32;;;;;;;6.00;2.15;;;34.40;34.10;;;;;;4726790;30;20029;-77
2021/06/17 14:24:58;;;;;;;4.18;2.08;;;34.40;34.70;;;;;;4725291;30;20092;-77
2021/06/17 14:27:25;;;;;;;17.55;2.65;;;34.50;34.10;;;;;;4725491;30;20249;-76
2021/06/17 14:29:51;;;;;;;;;;;34.50;33.80;;;;;;4727501;30;20060;-76
2021/06/17 14:32:18;;;;;;;26.90;2.78;;;34.50;35.60;;;;;;4725911;30;19917;-76
2021/06/17 14:34:45;;;;;;;5.30;1.88;;;34.50;34.50;;;;;;4720020;30;20056;-77
2021/06/17 14:37:12;;;;;;;7.05;1.58;;;34.50;34.80;;;;;;4725577;30;20355;-76
2021/06/17 14:39:38;;;;;;;3.63;2.15;;;34.40;34.70;;;;;;4724574;30;20033;-77
2021/06/17 14:42:05;;;;;;;9.73;2.53;;;34.40;34.20;;;;;;4726766;30;20037;-76
2021/06/17 14:44:31;;;;;;;;;;;34.40;34.70;;;;;;4727483;30;20248;-77
2021/06/17 14:46:57;;;;;;;;;;;34.30;34.40;;;;;;4726836;30;19914;-78
2021/06/17 14:49:22;;;;;;;5.00;1.55;;;34.30;34.50;;;;;;4726693;30;20163;-77
2021/06/17 14:51:48;;;;;;;2.50;2.00;;;34.30;35.00;;;;;;4720682;30;20385;-76
2021/06/17 14:54:20;;;;;;;6.07;2.67;;;34.30;34.80;;;;;;4721198;30;20052;-78
2021/06/17 14:56:47;;;;;;;10.90;2.65;;;34.40;36.00;;;;;;4726510;30;20043;-76
2021/06/17 14:59:13;;;;;;;8.40;2.35;;;34.50;36.10;;;;;;4721691;30;20333;-77
2021/06/17 15:01:40;;;;;;;12.57;2.93;;;34.50;36.20;;;;;;4725141;30;20036;-77
2021/06/17 15:04:06;;;;;;;3.85;2.22;;;34.40;35.20;;;;;;4722056;30;20025;-76
2021/06/17 15:06:32;;;;;;;9.32;2.78;;;34.40;35.30;;;;;;4722478;30;20092;-76
2021/06/17 15:08:57;;;;;;;3.30;2.20;;;34.30;35.80;;;;;;4722543;30;20026;-77
2021/06/17 15:11:23;;;;;;;3.97;2.03;;;34.10;36.40;;;;;;4723762;30;20260;-77
2021/06/17 15:13:49;;;;;;;3.70;2.40;;;34.00;35.60;;;;;;4723335;30;20030;-77
2021/06/17 15:16:15;;;;;;;4.70;2.30;;;34.00;36.00;;;;;;4713290;30;20108;-77
2021/06/17 15:18:41;;;;;;;12.20;2.93;;;33.90;35.80;;;;;;4726950;30;20037;-77
2021/06/17 15:21:07;;;;;;;3.33;2.30;;;33.70;35.90;;;;;;4726084;30;20036;-76
2021/06/17 15:23:33;;;;;;;5.23;2.90;;;33.60;36.10;;;;;;4723603;30;20349;-77
2021/06/17 15:25:59;;;;;;;3.80;2.20;;;33.50;36.50;;;;;;4729474;30;20033;-78
2021/06/17 15:28:30;;;;;;;3.65;2.40;;;33.40;36.30;;;;;;4728622;30;20040;-77
2021/06/17 15:30:56;;;;;;;5.82;2.40;;;33.30;36.00;;;;;;4725285;30;20025;-77
2021/06/17 15:33:22;;;;;;;8.45;2.67;;;33.30;37.30;;;;;;4726005;30;20047;-77
2021/06/17 15:35:48;;;;;;;7.90;2.47;;;33.20;37.00;;;;;;4723748;30;20364;-76
2021/06/17 15:38:14;;;;;;;13.30;2.27;;;33.20;37.20;;;;;;4727652;30;20153;-76
2021/06/17 15:40:40;;;;;;;8.50;2.60;;;33.20;37.10;;;;;;4728645;30;20263;-77
2021/06/17 15:43:06;;;;;;;9.33;2.80;;;33.20;37.10;;;;;;4724749;30;20041;-77
2021/06/17 15:45:32;;;;;;;5.97;2.00;;;33.10;36.40;;;;;;4729145;30;20275;-77
2021/06/17 15:47:57;;;;;;;5.03;2.40;;;33.10;36.90;;;;;;4729431;30;20318;-77
2021/06/17 15:50:23;;;;;;;4.60;2.07;;;33.20;37.50;;;;;;4714826;30;20040;-78